createdAt,value
2023-05-28T00:00:53.299Z,7.40
2023-05-28T00:03:43.247Z,6.97
2023-05-28T00:06:11.941Z,7.00
2023-05-28T00:08:40.577Z,6.97
2023-05-28T00:11:08.546Z,7.60
2023-05-28T00:13:36.766Z,8.20
2023-05-28T00:16:04.856Z,7.85
2023-05-28T00:18:33.758Z,7.40
2023-05-28T00:21:03.300Z,8.30
2023-05-28T00:23:31.533Z,7.85
2023-05-28T00:25:59.493Z,7.28
2023-05-28T00:28:27.914Z,6.88
2023-05-28T00:30:55.906Z,7.25
2023-05-28T00:33:24.082Z,6.10
2023-05-28T00:35:57.052Z,6.35
2023-05-28T00:38:26.934Z,7.50
2023-05-28T00:40:55.717Z,6.43
2023-05-28T00:43:23.902Z,7.13
2023-05-28T00:45:52.783Z,6.82
2023-05-28T00:48:21.796Z,7.22
2023-05-28T00:50:49.755Z,7.18
2023-05-28T00:53:18.864Z,7.13
2023-05-28T00:55:48.273Z,7.28
2023-05-28T00:58:17.192Z,8.32
2023-05-28T01:03:39.497Z,9.00
2023-05-28T01:06:12.281Z,9.50
2023-05-28T01:08:40.957Z,8.18
2023-05-28T01:11:14.002Z,7.35
2023-05-28T01:13:42.266Z,7.25
2023-05-28T01:16:10.832Z,8.40
2023-05-28T01:18:40.696Z,9.48
2023-05-28T01:21:09.885Z,9.48
2023-05-28T01:23:44.054Z,9.20
2023-05-28T01:26:13.118Z,8.60
2023-05-28T01:28:45.253Z,7.97
2023-05-28T01:31:13.753Z,7.97
2023-05-28T01:33:42.808Z,8.70
2023-05-28T01:36:14.752Z,8.25
2023-05-28T01:38:45.688Z,8.85
2023-05-28T01:41:14.314Z,9.02
2023-05-28T01:43:42.466Z,9.57
2023-05-28T01:46:11.292Z,9.73
2023-05-28T01:48:39.484Z,10.32
2023-05-28T01:51:07.866Z,12.00
2023-05-28T01:53:35.844Z,10.68
2023-05-28T01:56:06.327Z,10.63
2023-05-28T01:58:34.451Z,11.02
2023-05-28T02:01:09.464Z,11.00
2023-05-28T02:03:37.700Z,11.57
2023-05-28T02:06:06.563Z,13.55
2023-05-28T02:08:34.568Z,13.10
2023-05-28T02:11:02.833Z,12.77
2023-05-28T02:13:32.783Z,13.70
2023-05-28T02:16:01.104Z,13.50
2023-05-28T02:18:29.133Z,12.93
2023-05-28T02:20:57.299Z,12.85
2023-05-28T02:23:25.350Z,12.73
2023-05-28T02:25:53.726Z,10.00
2023-05-28T02:28:21.817Z,9.23
2023-05-28T02:30:51.296Z,8.32
2023-05-28T02:33:19.192Z,8.10
2023-05-28T02:35:47.413Z,7.78
2023-05-28T02:38:15.885Z,8.02
2023-05-28T02:40:44.084Z,8.05
2023-05-28T02:43:12.001Z,8.73
2023-05-28T02:45:40.322Z,7.93
2023-05-28T02:48:09.812Z,8.57
2023-05-28T02:50:38.575Z,9.25
2023-05-28T02:53:06.905Z,10.23
2023-05-28T02:55:35.102Z,9.70
2023-05-28T02:58:04.061Z,9.57
2023-05-28T03:00:32.307Z,12.65
2023-05-28T03:03:00.525Z,11.35
2023-05-28T03:05:32.277Z,9.88
2023-05-28T03:08:00.334Z,8.67
2023-05-28T03:10:28.684Z,8.15
2023-05-28T03:12:56.594Z,9.38
2023-05-28T03:15:27.700Z,9.07
2023-05-28T03:17:55.906Z,8.93
2023-05-28T03:20:24.368Z,8.30
2023-05-28T03:22:57.137Z,9.85
2023-05-28T03:25:26.236Z,16.45
2023-05-28T03:27:54.437Z,10.05
2023-05-28T03:30:23.096Z,11.57
2023-05-28T03:32:51.294Z,13.07
2023-05-28T03:35:19.699Z,12.20
2023-05-28T03:37:47.726Z,12.00
2023-05-28T03:40:17.317Z,10.77
2023-05-28T03:42:45.269Z,11.15
2023-05-28T03:45:13.689Z,10.73
2023-05-28T03:47:41.713Z,10.18
2023-05-28T03:50:11.098Z,9.88
2023-05-28T03:52:39.098Z,10.50
2023-05-28T03:55:07.893Z,11.98
2023-05-28T03:57:37.531Z,10.45
2023-05-28T04:00:08.172Z,10.30
2023-05-28T04:02:36.203Z,11.60
2023-05-28T04:05:05.441Z,12.13
2023-05-28T04:07:33.475Z,13.43
2023-05-28T04:10:02.067Z,12.93
2023-05-28T04:12:30.087Z,12.00
2023-05-28T04:15:00.154Z,12.45
2023-05-28T04:17:28.593Z,12.13
2023-05-28T04:19:56.859Z,12.10
2023-05-28T04:22:25.382Z,12.35
2023-05-28T04:24:56.451Z,11.40
2023-05-28T04:27:24.601Z,12.80
2023-05-28T04:29:56.025Z,12.75
2023-05-28T04:32:25.420Z,11.13
2023-05-28T04:34:55.783Z,10.95
2023-05-28T04:37:26.077Z,10.30
2023-05-28T04:39:54.387Z,10.60
2023-05-28T04:42:22.334Z,10.20
2023-05-28T04:44:50.503Z,9.57
2023-05-28T04:47:18.559Z,9.30
2023-05-28T04:49:48.760Z,7.18
2023-05-28T04:52:17.451Z,6.15
2023-05-28T04:54:47.259Z,6.05
2023-05-28T04:57:15.168Z,7.00
2023-05-28T04:59:43.728Z,7.15
2023-05-28T05:02:11.807Z,6.40
2023-05-28T05:04:39.777Z,7.03
2023-05-28T05:07:09.331Z,6.70
2023-05-28T05:09:37.261Z,6.38
2023-05-28T05:12:06.806Z,7.20
2023-05-28T05:14:34.765Z,7.40
2023-05-28T05:17:03.519Z,6.45
2023-05-28T05:19:31.802Z,6.78
2023-05-28T05:21:59.999Z,5.90
2023-05-28T05:24:29.260Z,7.18
2023-05-28T05:26:57.485Z,6.03
2023-05-28T05:29:25.862Z,6.18
2023-05-28T05:31:54.192Z,6.30
2023-05-28T05:34:22.229Z,6.03
2023-05-28T05:36:50.666Z,6.85
2023-05-28T05:39:19.777Z,5.53
2023-05-28T05:41:49.373Z,5.97
2023-05-28T05:44:17.333Z,4.82
2023-05-28T05:46:45.519Z,5.68
2023-05-28T05:49:13.629Z,5.25
2023-05-28T05:51:41.794Z,5.47
2023-05-28T05:54:09.698Z,5.60
2023-05-28T05:56:38.428Z,5.28
2023-05-28T05:59:07.732Z,5.13
2023-05-28T06:01:36.624Z,4.93
2023-05-28T06:04:04.686Z,5.15
2023-05-28T06:06:32.863Z,5.15
2023-05-28T06:09:01.118Z,5.18
2023-05-28T06:11:29.894Z,5.13
2023-05-28T06:13:57.968Z,5.30
2023-05-28T06:16:29.305Z,5.18
2023-05-28T06:18:57.238Z,6.00
2023-05-28T06:21:25.464Z,4.65
2023-05-28T06:23:54.255Z,5.30
2023-05-28T06:26:23.296Z,5.13
2023-05-28T06:28:51.257Z,5.40
2023-05-28T06:31:21.605Z,6.00
2023-05-28T06:33:52.296Z,4.82
2023-05-28T06:36:20.757Z,5.22
2023-05-28T06:38:48.721Z,5.47
2023-05-28T06:41:16.907Z,5.25
2023-05-28T06:43:44.861Z,4.95
2023-05-28T06:46:13.341Z,5.15
2023-05-28T06:48:41.622Z,5.40
2023-05-28T06:51:11.954Z,4.85
2023-05-28T06:53:40.219Z,4.43
2023-05-28T06:56:09.199Z,4.68
2023-05-28T06:58:37.183Z,4.80
2023-05-28T07:01:05.798Z,4.93
2023-05-28T07:03:34.137Z,4.55
2023-05-28T07:06:02.689Z,5.22
2023-05-28T07:08:32.014Z,5.15
2023-05-28T07:11:00.178Z,4.80
2023-05-28T07:13:28.093Z,4.90
2023-05-28T07:15:56.496Z,4.70
2023-05-28T07:18:25.060Z,4.75
2023-05-28T07:20:53.732Z,4.95
2023-05-28T07:23:21.781Z,4.68
2023-05-28T07:25:51.866Z,5.68
2023-05-28T07:28:20.203Z,4.78
2023-05-28T07:30:48.438Z,4.65
2023-05-28T07:33:16.534Z,4.63
2023-05-28T07:35:45.188Z,4.80
2023-05-28T07:38:13.878Z,4.40
2023-05-28T07:40:42.169Z,4.53
2023-05-28T07:43:11.415Z,4.57
2023-05-28T07:45:39.690Z,4.82
2023-05-28T07:48:07.722Z,4.70
2023-05-28T07:50:36.134Z,3.65
2023-05-28T07:53:04.127Z,4.03
2023-05-28T07:55:33.211Z,3.97
2023-05-28T07:58:01.249Z,4.80
2023-05-28T08:00:30.794Z,3.80
2023-05-28T08:02:58.915Z,5.03
2023-05-28T08:05:27.272Z,4.07
2023-05-28T08:07:55.237Z,4.13
2023-05-28T08:10:23.553Z,25.55
2023-05-28T08:12:51.681Z,4.28
2023-05-28T08:15:19.854Z,4.05
2023-05-28T08:17:49.174Z,5.43
2023-05-28T08:20:18.251Z,3.83
2023-05-28T08:22:46.184Z,4.03
2023-05-28T08:25:14.617Z,3.08
2023-05-28T08:27:42.555Z,10.25
2023-05-28T08:30:11.816Z,11.68
2023-05-28T08:32:39.861Z,2.90
2023-05-28T08:35:10.484Z,3.50
2023-05-28T08:37:38.505Z,4.70
2023-05-28T08:40:09.878Z,2.78
2023-05-28T08:42:38.021Z,7.67
2023-05-28T08:45:07.671Z,3.92
2023-05-28T08:47:36.605Z,2.78
2023-05-28T08:50:06.813Z,2.13
2023-05-28T08:52:36.650Z,2.15
2023-05-28T08:55:05.235Z,2.17
2023-05-28T08:57:34.589Z,2.20
2023-05-28T09:00:08.086Z,2.30
2023-05-28T09:02:36.664Z,2.15
2023-05-28T09:05:05.431Z,3.38
2023-05-28T09:07:34.026Z,2.85
2023-05-28T09:10:04.707Z,2.33
2023-05-28T09:12:32.668Z,2.40
2023-05-28T09:15:02.266Z,2.42
2023-05-28T09:17:37.681Z,2.60
2023-05-28T09:20:12.573Z,3.15
2023-05-28T09:22:41.015Z,2.22
2023-05-28T09:25:11.906Z,2.33
2023-05-28T09:27:40.327Z,2.50
2023-05-28T09:30:10.105Z,2.63
2023-05-28T09:32:38.198Z,2.97
2023-05-28T09:35:09.045Z,2.42
2023-05-28T09:37:37.770Z,2.53
2023-05-28T09:40:10.134Z,2.10
2023-05-28T09:42:43.258Z,2.50
2023-05-28T09:45:12.664Z,2.42
2023-05-28T09:47:49.500Z,2.50
2023-05-28T09:50:17.966Z,2.25
2023-05-28T09:52:46.698Z,2.40
2023-05-28T09:55:16.409Z,2.00
2023-05-28T09:57:47.991Z,2.25
2023-05-28T10:03:00.910Z,2.08
2023-05-28T10:05:33.423Z,2.05
2023-05-28T10:08:03.910Z,2.60
2023-05-28T10:10:33.098Z,2.55
2023-05-28T10:13:03.350Z,2.42
2023-05-28T10:15:31.834Z,3.05
2023-05-28T10:18:00.296Z,2.78
2023-05-28T10:20:28.607Z,2.20
2023-05-28T10:22:56.691Z,2.00
2023-05-28T10:25:25.148Z,2.08
2023-05-28T10:27:53.326Z,2.78
2023-05-28T10:30:36.176Z,2.50
2023-05-28T10:33:07.763Z,2.53
2023-05-28T10:38:09.370Z,2.38
2023-05-28T10:40:37.625Z,2.28
2023-05-28T10:43:05.573Z,2.70
2023-05-28T10:45:40.809Z,2.58
2023-05-28T10:48:10.869Z,4.00
2023-05-28T10:50:57.964Z,5.72
2023-05-28T10:53:26.744Z,2.25
2023-05-28T10:55:56.153Z,4.82
2023-05-28T10:58:26.073Z,2.38
2023-05-28T11:01:02.010Z,2.80
2023-05-28T11:03:46.598Z,2.83
2023-05-28T11:06:16.234Z,3.00
2023-05-28T11:08:45.779Z,2.35
2023-05-28T11:11:17.599Z,7.50
2023-05-28T11:13:46.745Z,2.30
2023-05-28T11:16:18.085Z,2.35
2023-05-28T11:19:05.719Z,2.30
2023-05-28T11:21:34.596Z,2.65
2023-05-28T11:24:04.354Z,3.13
2023-05-28T11:26:33.783Z,2.20
2023-05-28T11:29:03.073Z,2.63
2023-05-28T11:31:40.243Z,2.92
2023-05-28T11:34:08.480Z,2.15
2023-05-28T11:36:41.095Z,3.08
2023-05-28T11:39:09.153Z,2.45
2023-05-28T11:41:37.619Z,3.30
2023-05-28T11:44:20.063Z,2.35
2023-05-28T11:46:51.714Z,2.58
2023-05-28T11:49:19.929Z,2.17
2023-05-28T11:51:48.271Z,2.55
2023-05-28T11:54:16.662Z,2.45
2023-05-28T11:56:44.967Z,2.55
2023-05-28T11:59:12.931Z,2.40
2023-05-28T12:01:41.352Z,2.58
2023-05-28T12:04:10.743Z,2.55
2023-05-28T12:06:52.317Z,2.25
2023-05-28T12:09:20.664Z,2.50
2023-05-28T12:12:04.216Z,2.78
2023-05-28T12:14:33.011Z,2.55
2023-05-28T12:17:10.541Z,2.50
2023-05-28T12:19:39.990Z,2.28
2023-05-28T12:22:15.684Z,2.38
2023-05-28T12:24:49.779Z,2.33
2023-05-28T12:27:18.143Z,2.15
2023-05-28T12:29:46.548Z,2.30
2023-05-28T12:32:14.936Z,2.72
2023-05-28T12:34:44.278Z,2.60
2023-05-28T12:37:12.510Z,2.33
2023-05-28T12:39:40.537Z,2.63
2023-05-28T12:42:08.991Z,2.53
2023-05-28T12:44:37.010Z,2.83
2023-05-28T12:47:05.425Z,2.80
2023-05-28T12:49:33.669Z,2.42
2023-05-28T12:52:03.231Z,2.47
2023-05-28T12:54:31.192Z,2.10
2023-05-28T12:56:59.368Z,2.40
2023-05-28T12:59:29.591Z,2.50
2023-05-28T13:01:58.353Z,3.28
2023-05-28T13:04:26.660Z,2.88
2023-05-28T13:06:55.536Z,2.40
2023-05-28T13:09:25.131Z,1.90
2023-05-28T13:11:53.387Z,2.45
2023-05-28T13:14:21.415Z,2.50
2023-05-28T13:16:49.901Z,2.95
2023-05-28T13:19:17.841Z,2.17
2023-05-28T13:21:46.080Z,2.42
2023-05-28T13:24:14.642Z,2.05
2023-05-28T13:26:44.382Z,2.45
2023-05-28T13:29:12.371Z,2.50
2023-05-28T13:31:40.539Z,2.17
2023-05-28T13:34:08.484Z,2.60
2023-05-28T13:36:37.075Z,2.60
2023-05-28T13:39:06.104Z,2.42
2023-05-28T13:41:34.440Z,2.40
2023-05-28T13:44:03.837Z,2.40
2023-05-28T13:46:32.232Z,1.90
2023-05-28T13:49:00.378Z,2.40
2023-05-28T13:51:28.734Z,2.50
2023-05-28T13:53:56.675Z,2.72
2023-05-28T13:56:24.938Z,2.53
2023-05-28T13:58:53.115Z,2.20
2023-05-28T14:01:22.688Z,2.22
2023-05-28T14:03:51.143Z,1.95
2023-05-28T14:06:19.505Z,2.80
2023-05-28T14:08:47.449Z,2.58
2023-05-28T14:11:15.649Z,2.30
2023-05-28T14:13:43.640Z,2.42
2023-05-28T14:16:12.094Z,2.55
2023-05-28T14:18:41.429Z,2.53
2023-05-28T14:21:09.601Z,2.15
2023-05-28T14:23:37.617Z,1.90
2023-05-28T14:26:05.910Z,1.77
2023-05-28T14:28:33.987Z,2.00
2023-05-28T14:31:02.196Z,2.05
2023-05-28T14:33:30.519Z,2.05
2023-05-28T14:36:14.713Z,2.22
2023-05-28T14:38:43.772Z,2.20
2023-05-28T14:41:11.994Z,2.00
2023-05-28T14:43:39.980Z,3.42
2023-05-28T14:46:08.277Z,1.95
2023-05-28T14:48:36.395Z,1.70
2023-05-28T14:51:07.997Z,2.17
2023-05-28T14:53:36.140Z,2.10
2023-05-28T14:56:04.597Z,2.80
2023-05-28T14:58:32.711Z,1.88
2023-05-28T15:01:03.724Z,2.22
2023-05-28T15:03:32.327Z,2.40
2023-05-28T15:06:01.176Z,7.90
2023-05-28T15:08:30.723Z,2.60
2023-05-28T15:10:59.097Z,2.47
2023-05-28T15:13:27.067Z,25.35
2023-05-28T15:15:56.380Z,2.05
2023-05-28T15:18:24.577Z,3.05
2023-05-28T15:20:53.373Z,5.45
2023-05-28T15:23:22.017Z,8.70
2023-05-28T15:25:51.962Z,2.80
2023-05-28T15:28:20.762Z,1.98
2023-05-28T15:30:49.327Z,2.45
2023-05-28T15:33:17.581Z,2.53
2023-05-28T15:35:46.396Z,2.30
2023-05-28T15:38:14.690Z,2.03
2023-05-28T15:40:43.485Z,2.30
2023-05-28T15:43:13.125Z,2.30
2023-05-28T15:45:41.548Z,2.63
2023-05-28T15:48:09.556Z,2.70
2023-05-28T15:50:37.951Z,2.00
2023-05-28T15:53:05.959Z,4.60
2023-05-28T15:55:34.534Z,3.53
2023-05-28T15:58:02.891Z,13.23
2023-05-28T16:00:33.547Z,2.70
2023-05-28T16:03:03.446Z,2.13
2023-05-28T16:05:32.113Z,2.17
2023-05-28T16:08:02.326Z,2.40
